Webster, Nebraska
Current Conditions -  °F | °C
As of 12:00 AM on Friday 19 Dec 2014 (Local Time) from KBBW Reporting Station
Haze Haze  
Wind Chill: 17°   Ceiling: 300
Heat Index: 27°   Visibility: 3mi
Dew Point: 26°   Wind: 10mph
Humidity: 96%   Direction: 240°WSW
Pressure: 30.13"   Gusts: NA
Location:  41.3026°N, 99.0141°W
Report Text: KBBW 190600Z AUTO 24009KT 3SM BR OVC003 M03/M03 A3013 RMK AO2 T10281033
Loading
Personal Weather Stations






























Interactive Weather Map New forecast layout! Learn more

10-Day Weather Forecast

Advertisements
Track Severe Weather on mobile